Time;durP1;ratioP1;P1;durP2;ratioP2;P2;SDS_P1;SDS_P2;PMS_P1;PMS_P2;Temp;Humidity;BMP_temperature;BMP_pressure;BME280_temperature;BME280_humidity;BME280_pressure;Samples;Min_cycle;Max_cycle;Signal;HPM_P1;HPM_P2
2021/05/16 00:00:54;;;;;;;;;2.00;2.00;;;;;21.47;38.29;98382.41;5003967;28;8808;-48
2021/05/16 00:03:20;;;;;;;;;3.00;3.00;;;;;21.38;38.24;98382.66;4991479;28;8831;-47
2021/05/16 00:05:46;;;;;;;;;1.60;1.60;;;;;21.71;37.58;98379.19;4981700;28;8935;-48
2021/05/16 00:08:13;;;;;;;;;2.00;2.00;;;;;21.62;37.69;98373.19;4984621;28;8793;-48
2021/05/16 00:10:39;;;;;;;;;2.00;2.00;;;;;21.63;37.80;98384.97;4994091;28;8790;-48
2021/05/16 00:13:05;;;;;;;;;2.00;2.00;;;;;21.59;37.79;98389.63;4979054;28;8826;-47
2021/05/16 00:15:31;;;;;;;;;2.00;2.00;;;;;21.81;37.94;98385.19;4982053;28;8833;-48
2021/05/16 00:17:57;;;;;;;;;1.40;1.40;;;;;21.83;37.36;98380.09;4975266;28;8821;-48
2021/05/16 00:20:26;;;;;;;;;2.40;2.00;;;;;21.63;37.76;98368.50;4988186;28;8814;-48
2021/05/16 00:22:52;;;;;;;;;2.00;2.00;;;;;21.52;37.72;98382.88;4988575;28;8901;-48
2021/05/16 00:25:19;;;;;;;;;1.50;1.50;;;;;21.45;37.88;98385.50;4975593;28;8875;-48
2021/05/16 00:27:45;;;;;;;;;1.00;1.00;;;;;21.40;37.93;98385.81;4997280;28;8844;-48
2021/05/16 00:30:14;;;;;;;;;1.00;1.00;;;;;21.36;38.04;98382.22;4975592;28;8801;-48
2021/05/16 00:32:39;;;;;;;;;1.80;1.80;;;;;21.32;38.00;98375.91;4992904;28;8875;-48
2021/05/16 00:35:07;;;;;;;;;3.00;3.00;;;;;21.33;38.00;98383.75;4995271;28;8784;-48
2021/05/16 00:37:32;;;;;;;;;2.00;2.00;;;;;21.35;37.92;98388.88;4992934;28;11646;-48
2021/05/16 00:39:58;;;;;;;;;2.00;1.00;;;;;21.34;38.14;98390.06;4973860;28;8797;-48
2021/05/16 00:42:24;;;;;;;;;1.75;1.75;;;;;21.30;38.03;98390.00;4995025;28;9530;-48
2021/05/16 00:45:09;;;;;;;;;2.00;2.00;;;;;21.27;38.03;98389.94;5001837;28;8791;-48
2021/05/16 00:47:36;;;;;;;;;1.60;1.40;;;;;21.42;38.01;98396.41;4995724;28;8808;-48
2021/05/16 00:50:05;;;;;;;;;1.80;1.80;;;;;21.52;37.74;98401.28;5000736;28;8800;-48
2021/05/16 00:52:30;;;;;;;;;1.00;1.00;;;;;21.31;37.91;98391.56;4990761;28;9560;-48
2021/05/16 00:54:56;;;;;;;;;2.00;2.00;;;;;21.24;38.17;98388.72;4997466;28;8887;-48
2021/05/16 00:57:22;;;;;;;;;1.00;1.00;;;;;20.95;38.09;98354.63;4994281;28;8813;-48
2021/05/16 00:59:47;;;;;;;;;1.00;1.00;;;;;21.17;37.99;98397.63;4987841;28;8779;-48
2021/05/16 01:02:13;;;;;;;;;1.75;1.75;;;;;21.14;38.10;98405.81;5000190;28;8788;-49
2021/05/16 01:04:41;;;;;;;;;1.75;1.75;;;;;20.99;38.11;98383.66;4994176;28;8902;-47
2021/05/16 01:07:07;;;;;;;;;1.00;1.00;;;;;21.08;38.04;98405.34;4995105;28;9626;-48
2021/05/16 01:09:33;;;;;;;;;1.00;1.00;;;;;21.05;38.26;98402.53;4999688;28;8816;-48
2021/05/16 01:12:01;;;;;;;;;1.00;1.00;;;;;21.02;38.25;98406.00;4993747;28;8798;-48
2021/05/16 01:14:33;;;;;;;;;2.00;1.20;;;;;20.96;38.38;98403.56;4979837;28;8783;-48
2021/05/16 01:16:58;;;;;;;;;1.00;1.00;;;;;20.93;38.27;98409.00;4979259;28;8795;-48
2021/05/16 01:19:24;;;;;;;;;2.00;2.00;;;;;20.92;38.51;98404.69;4976048;28;8803;-48
2021/05/16 01:21:52;;;;;;;;;1.00;1.00;;;;;21.22;38.08;98402.03;4991757;28;61233;-48
2021/05/16 01:24:20;;;;;;;;;1.00;1.00;;;;;21.14;37.93;98414.03;4996720;28;8843;-48
2021/05/16 01:26:48;;;;;;;;;1.80;1.80;;;;;20.99;38.13;98413.03;4979456;28;8949;-48
2021/05/16 01:29:15;;;;;;;;;1.60;1.60;;;;;20.90;38.36;98412.50;4983592;28;8786;-48
2021/05/16 01:31:41;;;;;;;;;1.60;1.60;;;;;20.88;38.41;98415.59;4997830;28;8901;-48
2021/05/16 01:34:07;;;;;;;;;1.20;1.20;;;;;20.86;38.33;98408.91;4998217;28;8784;-48
2021/05/16 01:36:33;;;;;;;;;1.00;1.00;;;;;20.78;38.37;98414.25;5000541;28;8827;-48
2021/05/16 01:38:59;;;;;;;;;1.60;1.60;;;;;20.82;38.47;98417.06;4994518;28;8847;-48
2021/05/16 01:41:25;;;;;;;;;1.00;1.00;;;;;20.77;38.44;98415.44;5000184;28;8764;-48
2021/05/16 01:43:52;;;;;;;;;1.00;1.00;;;;;20.91;38.26;98412.09;4994316;28;8787;-48
2021/05/16 01:46:18;;;;;;;;;2.00;2.00;;;;;20.93;38.15;98409.00;4996926;28;8784;-48
2021/05/16 01:48:43;;;;;;;;;1.00;1.00;;;;;20.95;38.09;98412.19;4999922;28;8838;-47
2021/05/16 01:51:09;;;;;;;;;1.00;1.00;;;;;20.94;38.12;98413.34;4982378;28;8787;-48
2021/05/16 01:53:35;;;;;;;;;1.00;1.00;;;;;21.14;37.98;98419.50;4978491;28;9283;-48
2021/05/16 01:56:01;;;;;;;;;2.00;2.00;;;;;21.20;37.63;98412.56;4980556;28;9247;-48
2021/05/16 01:58:27;;;;;;;;;1.00;1.00;;;;;21.05;37.81;98408.03;4999155;28;8909;-47
2021/05/16 02:00:53;;;;;;;;;1.00;1.00;;;;;20.95;38.09;98412.19;4996845;28;8796;-48
2021/05/16 02:03:19;;;;;;;;;1.00;1.00;;;;;20.93;37.97;98414.47;4996278;28;8809;-48
2021/05/16 02:05:48;;;;;;;;;1.00;1.00;;;;;20.92;38.20;98418.41;4992912;28;8799;-48
2021/05/16 02:08:14;;;;;;;;;1.00;1.00;;;;;20.85;37.95;98404.59;4996968;28;8838;-48
2021/05/16 02:10:39;;;;;;;;;1.00;1.00;;;;;20.87;38.08;98413.22;4994739;28;9540;-48
2021/05/16 02:13:05;;;;;;;;;1.50;1.50;;;;;20.86;38.11;98409.69;4997193;28;8819;-47
2021/05/16 02:15:30;;;;;;;;;1.00;1.00;;;;;20.83;38.01;98401.44;5001971;28;8942;-48
2021/05/16 02:17:57;;;;;;;;;1.00;1.00;;;;;20.85;38.17;98410.84;4998357;28;8812;-47
2021/05/16 02:20:23;;;;;;;;;1.00;1.00;;;;;20.84;38.17;98412.00;4994788;28;8836;-48
2021/05/16 02:22:48;;;;;;;;;1.40;1.40;;;;;20.85;38.07;98418.28;4996696;28;8796;-48
2021/05/16 02:25:14;;;;;;;;;1.00;1.00;;;;;20.83;38.10;98415.91;4995426;28;8812;-48
2021/05/16 02:27:40;;;;;;;;;1.00;1.00;;;;;21.09;37.70;98420.63;4979574;28;8838;-48
2021/05/16 02:30:08;;;;;;;;;1.00;1.00;;;;;21.01;37.44;98421.66;4995716;28;8870;-47
2021/05/16 02:32:34;;;;;;;;;2.00;2.00;;;;;20.88;38.04;98426.56;4985099;28;8823;-48
2021/05/16 02:35:00;;;;;;;;;1.00;1.00;;;;;20.83;37.90;98415.13;4980384;28;8787;-48
2021/05/16 02:37:25;;;;;;;;;1.00;1.00;;;;;20.78;38.03;98425.22;4972732;28;8904;-48
2021/05/16 02:39:51;;;;;;;;;1.00;1.00;;;;;20.74;38.09;98424.38;4981112;28;8821;-48
2021/05/16 02:42:16;;;;;;;;;1.00;1.00;;;;;20.74;38.16;98429.06;4999995;28;8781;-47
2021/05/16 02:44:41;;;;;;;;;1.00;1.00;;;;;20.74;38.24;98420.84;4985579;28;8813;-47
2021/05/16 02:47:06;;;;;;;;;1.00;1.00;;;;;20.74;38.10;98431.81;4978127;28;8913;-47
2021/05/16 02:49:32;;;;;;;;;2.00;2.00;;;;;20.73;37.89;98432.97;4977183;28;8913;-47
2021/05/16 02:51:58;;;;;;;;;1.00;1.00;;;;;20.37;38.04;98381.06;4981207;28;8849;-46
2021/05/16 02:54:23;;;;;;;;;1.50;1.50;;;;;20.72;38.09;98434.91;4978373;28;8791;-48
2021/05/16 02:56:49;;;;;;;;;1.00;1.00;;;;;20.71;38.07;98440.75;4975203;28;11522;-48
2021/05/16 02:59:14;;;;;;;;;1.00;1.00;;;;;20.85;38.05;98435.50;4992335;28;8788;-48
2021/05/16 03:01:40;;;;;;;;;1.00;1.00;;;;;21.05;37.73;98436.22;4995300;28;8772;-48
2021/05/16 03:04:06;;;;;;;;;1.60;1.60;;;;;20.88;37.70;98429.31;5002811;28;8934;-47
2021/05/16 03:06:31;;;;;;;;;1.00;1.00;;;;;20.76;37.95;98435.75;5003165;28;9104;-47
2021/05/16 03:08:56;;;;;;;;;1.00;1.00;;;;;20.71;37.90;98441.53;4997195;28;8974;-47
2021/05/16 03:11:22;;;;;;;;;1.00;1.00;;;;;20.67;38.05;98435.22;4991867;28;8861;-48
2021/05/16 03:13:48;;;;;;;;;1.00;1.00;;;;;20.66;37.96;98433.63;4975173;28;8809;-48
2021/05/16 03:16:13;;;;;;;;;1.00;1.00;;;;;20.65;38.08;98436.72;4977380;28;9542;-48
2021/05/16 03:18:38;;;;;;;;;1.00;1.00;;;;;20.64;38.21;98441.41;4996977;28;8866;-48
2021/05/16 03:21:04;;;;;;;;;1.00;1.00;;;;;20.63;38.04;98448.03;5002104;28;8910;-48
2021/05/16 03:23:29;;;;;;;;;1.00;1.00;;;;;20.65;38.22;98443.00;4999386;28;8780;-47
2021/05/16 03:26:00;;;;;;;;;1.00;1.00;;;;;20.61;38.12;98434.72;4997095;28;8799;-48
2021/05/16 03:28:25;;;;;;;;;1.00;1.00;;;;;20.60;38.18;98449.53;4999508;28;8771;-48
2021/05/16 03:30:51;;;;;;;;;1.50;1.50;;;;;20.62;38.02;98449.22;4993520;28;8947;-48
2021/05/16 03:33:16;;;;;;;;;1.00;1.00;;;;;20.86;37.90;98441.78;5001063;28;8804;-48
2021/05/16 03:35:42;;;;;;;;;1.00;1.00;;;;;20.88;37.56;98456.72;4997318;28;8788;-48
2021/05/16 03:38:07;;;;;;;;;1.00;1.00;;;;;20.66;37.79;98450.06;4992519;28;8758;-48
2021/05/16 03:40:33;;;;;;;;;1.00;1.00;;;;;20.67;37.94;98461.81;5002486;28;8748;-48
2021/05/16 03:42:58;;;;;;;;;2.00;2.00;;;;;20.65;37.99;98473.16;5004052;28;8832;-47
2021/05/16 03:45:23;;;;;;;;;1.00;1.00;;;;;20.31;38.05;98420.06;5000682;28;8930;-48
2021/05/16 03:47:49;;;;;;;;;2.00;2.00;;;;;20.63;38.04;98471.91;4997727;28;8830;-48
2021/05/16 03:50:14;;;;;;;;;1.00;1.00;;;;;20.55;38.05;98465.50;4988792;28;8795;-48
2021/05/16 03:52:42;;;;;;;;;1.00;1.00;;;;;20.59;37.96;98477.31;4981593;28;8819;-47
2021/05/16 03:55:08;;;;;;;;;1.60;1.60;;;;;20.23;37.88;98422.66;4995913;28;8822;-47
2021/05/16 03:57:34;;;;;;;;;1.40;1.00;;;;;20.52;38.17;98474.44;5000003;28;8810;-48
2021/05/16 04:00:00;;;;;;;;;1.00;1.00;;;;;20.18;38.32;98424.91;5000413;28;8808;-48
2021/05/16 04:02:25;;;;;;;;;1.00;1.00;;;;;20.49;38.18;98472.41;4997836;28;11490;-47
2021/05/16 04:04:50;;;;;;;;;1.00;1.00;;;;;20.58;38.29;98476.53;4988292;28;9148;-48
2021/05/16 04:07:16;;;;;;;;;1.00;1.00;;;;;20.85;37.68;98478.59;4980055;28;8787;-47
2021/05/16 04:09:41;;;;;;;;;1.00;1.00;;;;;20.70;37.73;98477.53;4974370;28;8817;-48
2021/05/16 04:12:07;;;;;;;;;2.00;1.75;;;;;20.59;37.75;98483.56;4977690;28;8816;-47
2021/05/16 04:14:32;;;;;;;;;1.00;1.00;;;;;20.41;38.13;98469.53;4980000;28;8791;-48
2021/05/16 04:16:57;;;;;;;;;2.00;2.00;;;;;20.50;38.00;98491.22;4974394;28;11544;-48
2021/05/16 04:19:23;;;;;;;;;1.00;1.00;;;;;20.16;38.02;98428.00;4983066;28;8804;-48
2021/05/16 04:21:48;;;;;;;;;1.00;1.00;;;;;20.49;38.05;98486.09;4998417;28;8792;-48
2021/05/16 04:24:14;;;;;;;;;1.25;1.25;;;;;20.48;38.09;98485.31;4998481;28;8827;-47
2021/05/16 04:26:40;;;;;;;;;1.20;1.20;;;;;20.48;38.09;98487.28;4997217;28;9765;-47
2021/05/16 04:29:05;;;;;;;;;1.00;1.00;;;;;20.48;38.13;98492.75;4996950;28;8807;-48
2021/05/16 04:31:31;;;;;;;;;1.00;1.00;;;;;20.22;37.94;98448.44;4996344;28;8882;-47
2021/05/16 04:33:57;;;;;;;;;1.20;1.00;;;;;20.04;38.05;98430.88;5003652;28;9653;-38
2021/05/16 04:36:22;;;;;;;;;1.00;1.00;;;;;20.27;38.12;98466.53;4999357;28;12615;-47
2021/05/16 04:38:48;;;;;;;;;1.00;1.00;;;;;20.67;37.88;98492.75;5000946;28;8803;-47
2021/05/16 04:41:15;;;;;;;;;1.75;1.75;;;;;20.73;37.34;98493.25;4997158;28;9733;-48
2021/05/16 04:43:41;;;;;;;;;1.00;1.00;;;;;20.59;37.59;98494.53;5000002;28;8780;-48
2021/05/16 04:46:07;;;;;;;;;1.00;1.00;;;;;20.52;37.75;98493.59;4999486;28;8816;-48
2021/05/16 04:48:32;;;;;;;;;1.80;1.80;;;;;20.47;37.96;98496.63;4996105;28;8826;-48
2021/05/16 04:50:57;;;;;;;;;1.00;1.00;;;;;20.28;38.06;98479.09;4999538;28;8816;-48
2021/05/16 04:53:27;;;;;;;;;1.00;1.00;;;;;20.41;37.95;98493.41;4984734;28;8849;-48
2021/05/16 04:55:52;;;;;;;;;1.00;1.00;;;;;20.39;37.98;98496.50;4983420;28;8800;-47
2021/05/16 04:58:17;;;;;;;;;1.00;1.00;;;;;20.34;38.22;98498.75;4998483;28;8778;-48
2021/05/16 05:00:43;;;;;;;;;2.00;2.00;;;;;20.37;37.99;98507.03;4998449;28;8878;-48
2021/05/16 05:03:08;;;;;;;;;1.00;1.00;;;;;20.35;38.04;98497.56;4996652;28;9603;-48
2021/05/16 05:05:33;;;;;;;;;1.50;1.50;;;;;20.35;38.01;98498.38;4981828;28;8811;-48
2021/05/16 05:08:00;;;;;;;;;1.00;1.00;;;;;20.35;38.23;98503.88;4976004;28;9170;-48
2021/05/16 05:10:25;;;;;;;;;3.00;2.00;;;;;20.35;38.12;98498.38;4975905;28;8771;-48
2021/05/16 05:12:51;;;;;;;;;1.00;1.00;;;;;20.65;37.81;98508.78;4976655;28;8802;-48
2021/05/16 05:15:16;;;;;;;;;1.50;1.50;;;;;20.55;37.59;98515.59;4980807;28;8825;-48
2021/05/16 05:17:42;;;;;;;;;1.00;1.00;;;;;20.42;37.90;98520.44;4992776;28;8836;-48
2021/05/16 05:20:09;;;;;;;;;1.00;1.00;;;;;20.37;37.94;98514.47;4989982;28;8809;-48
2021/05/16 05:22:34;;;;;;;;;1.00;1.00;;;;;20.33;38.04;98519.84;4986380;28;11495;-48
2021/05/16 05:25:00;;;;;;;;;1.00;1.00;;;;;20.30;38.10;98526.06;4997350;28;9552;-48
2021/05/16 05:27:25;;;;;;;;;1.00;1.00;;;;;20.30;38.06;98526.06;4978710;28;8825;-47
2021/05/16 05:29:51;;;;;;;;;1.00;1.00;;;;;20.30;38.09;98520.59;4976469;28;8840;-48
2021/05/16 05:32:16;;;;;;;;;1.00;1.00;;;;;20.30;37.89;98520.59;4990715;28;8816;-47
2021/05/16 05:34:41;;;;;;;;;1.25;1.25;;;;;20.27;38.06;98521.28;4995124;28;8804;-48
2021/05/16 05:37:07;;;;;;;;;1.00;1.00;;;;;20.28;38.18;98517.41;4995367;28;8828;-48
2021/05/16 05:39:33;;;;;;;;;1.20;1.20;;;;;20.27;38.15;98524.03;4996398;28;8816;-48
2021/05/16 05:41:58;;;;;;;;;2.00;2.00;;;;;20.26;38.05;98527.91;4998896;28;8812;-48
2021/05/16 05:44:23;;;;;;;;;1.00;1.00;;;;;20.41;38.00;98527.06;4983898;28;8806;-49
2021/05/16 05:46:49;;;;;;;;;1.00;1.00;;;;;20.55;37.74;98525.75;4976887;28;8844;-48
2021/05/16 05:49:14;;;;;;;;;1.00;1.00;;;;;20.36;37.72;98529.28;4977474;28;8892;-48
2021/05/16 05:51:39;;;;;;;;;1.00;1.00;;;;;20.28;38.05;98533.84;4994904;28;8839;-48
2021/05/16 05:54:05;;;;;;;;;1.00;1.00;;;;;20.24;38.02;98532.97;4977201;28;8827;-49
2021/05/16 05:56:31;;;;;;;;;1.00;1.00;;;;;20.20;38.20;98538.38;4978239;28;10436;-48
2021/05/16 05:58:56;;;;;;;;;1.80;1.80;;;;;20.16;38.08;98525.78;4979345;28;8874;-48
2021/05/16 06:01:22;;;;;;;;;1.00;1.00;;;;;20.20;38.09;98540.31;4976862;28;8894;-48
2021/05/16 06:03:49;;;;;;;;;2.00;2.00;;;;;20.20;38.17;98537.59;4998017;28;8917;-48
2021/05/16 06:06:15;;;;;;;;;1.20;1.20;;;;;20.19;38.12;98546.94;4992521;28;8787;-47
2021/05/16 06:08:40;;;;;;;;;1.00;1.00;;;;;20.18;38.11;98542.63;4986448;28;8905;-47
2021/05/16 06:11:05;;;;;;;;;1.00;1.00;;;;;20.18;38.12;98550.84;4988596;28;8785;-48
2021/05/16 06:13:31;;;;;;;;;2.00;2.00;;;;;20.14;38.16;98539.81;4991377;28;8788;-47
2021/05/16 06:15:56;;;;;;;;;1.25;1.25;;;;;20.15;38.17;98543.34;4995099;28;8800;-47
2021/05/16 06:18:23;;;;;;;;;1.00;1.00;;;;;20.44;37.85;98542.00;4996414;28;8847;-48
2021/05/16 06:20:49;;;;;;;;;1.00;1.00;;;;;20.40;37.74;98541.09;4994209;28;8779;-48
2021/05/16 06:23:15;;;;;;;;;1.00;1.00;;;;;20.25;37.90;98551.00;4999345;28;8788;-48
2021/05/16 06:25:40;;;;;;;;;1.40;1.40;;;;;20.18;37.99;98556.31;4997631;28;8795;-48
2021/05/16 06:28:06;;;;;;;;;1.50;1.00;;;;;20.16;37.99;98553.16;4996916;28;8820;-47
2021/05/16 06:30:32;;;;;;;;;1.00;1.00;;;;;20.13;38.04;98554.66;4999705;28;8824;-48
2021/05/16 06:32:58;;;;;;;;;2.00;2.00;;;;;20.13;38.16;98556.59;4993758;28;9520;-47
2021/05/16 06:35:23;;;;;;;;;1.00;1.00;;;;;20.11;38.06;98553.44;4998404;28;8792;-48
2021/05/16 06:37:48;;;;;;;;;1.00;1.00;;;;;20.11;38.33;98558.91;4987421;28;8818;-48
2021/05/16 06:40:15;;;;;;;;;1.00;1.00;;;;;20.10;38.21;98558.09;4977819;28;8993;-47
2021/05/16 06:42:43;;;;;;;;;1.40;1.40;;;;;20.11;38.14;98561.63;4996311;28;8804;-47
2021/05/16 06:45:10;;;;;;;;;1.40;1.40;;;;;20.10;38.17;98563.56;4992822;28;8933;-48
2021/05/16 06:47:37;;;;;;;;;2.00;2.00;;;;;20.09;37.93;98559.25;4993888;28;9001;-47
2021/05/16 06:50:04;;;;;;;;;2.00;2.00;;;;;20.20;38.25;98565.75;4991841;28;8823;-48
2021/05/16 06:52:29;;;;;;;;;1.80;1.80;;;;;20.42;37.66;98571.66;4995443;28;8764;-48
2021/05/16 06:54:54;;;;;;;;;1.75;1.75;;;;;20.27;37.57;98565.09;4993287;28;8838;-48
2021/05/16 06:57:20;;;;;;;;;1.50;1.50;;;;;20.17;37.88;98560.97;4997708;28;8818;-48
2021/05/16 06:59:45;;;;;;;;;1.00;1.00;;;;;20.13;37.96;98570.28;4998806;28;8804;-48
2021/05/16 07:02:11;;;;;;;;;1.00;1.00;;;;;20.09;38.02;98566.66;4993198;28;8927;-48
2021/05/16 07:04:36;;;;;;;;;1.50;1.50;;;;;20.09;38.08;98569.41;4993014;28;8853;-48
2021/05/16 07:07:01;;;;;;;;;1.00;1.00;;;;;20.07;38.05;98575.25;4991982;28;9112;-48
2021/05/16 07:09:27;;;;;;;;;2.00;2.00;;;;;20.05;38.10;98581.06;4996445;28;8927;-47
2021/05/16 07:11:53;;;;;;;;;2.00;2.00;;;;;20.04;38.12;98584.97;4997741;28;8820;-48
2021/05/16 07:14:18;;;;;;;;;2.00;2.00;;;;;20.04;38.05;98582.22;4983652;28;9594;-48
2021/05/16 07:16:43;;;;;;;;;2.00;2.00;;;;;20.04;38.16;98587.69;4985121;28;8859;-48
2021/05/16 07:19:09;;;;;;;;;1.25;1.25;;;;;20.04;38.11;98595.91;4993218;28;8819;-47
2021/05/16 07:21:34;;;;;;;;;1.00;1.00;;;;;20.04;38.09;98595.91;4980999;28;8837;-48
2021/05/16 07:24:00;;;;;;;;;1.25;1.25;;;;;19.91;38.04;98541.63;4995067;28;8965;-48
2021/05/16 07:26:25;;;;;;;;;1.40;1.40;;;;;20.29;37.55;98603.09;4989108;28;9583;-47
2021/05/16 07:28:51;;;;;;;;;1.00;1.00;;;;;20.15;37.71;98601.63;4987772;28;8796;-48
2021/05/16 07:31:16;;;;;;;;;1.00;1.00;;;;;20.09;37.95;98610.44;4994199;28;8819;-48
2021/05/16 07:33:42;;;;;;;;;1.50;1.50;;;;;20.05;38.04;98607.63;4998151;28;8868;-47
2021/05/16 07:36:08;;;;;;;;;1.00;1.00;;;;;19.95;37.96;98595.31;4977449;28;12395;-47
2021/05/16 07:38:33;;;;;;;;;1.75;1.75;;;;;20.02;38.13;98609.16;4972110;28;8806;-48
2021/05/16 07:40:58;;;;;;;;;2.00;2.00;;;;;19.80;37.97;98576.97;4976324;28;10626;-48
2021/05/16 07:43:25;;;;;;;;;2.00;2.00;;;;;19.99;38.12;98612.59;4978954;28;8791;-48
2021/05/16 07:45:51;;;;;;;;;1.20;1.20;;;;;19.99;38.04;98615.34;4980264;28;8838;-48
2021/05/16 07:48:17;;;;;;;;;2.00;2.00;;;;;19.99;38.10;98620.03;5001360;28;8852;-48
2021/05/16 07:50:43;;;;;;;;;2.00;2.00;;;;;19.91;38.12;98602.66;5000586;28;8834;-48
2021/05/16 07:53:10;;;;;;;;;2.00;2.00;;;;;19.98;38.13;98616.50;4997752;28;8808;-47
2021/05/16 07:55:37;;;;;;;;;2.00;2.00;;;;;19.92;38.24;98604.22;5002395;28;8796;-47
2021/05/16 07:58:03;;;;;;;;;1.00;1.00;;;;;20.28;37.98;98621.47;4995728;28;8937;-47
2021/05/16 08:00:28;;;;;;;;;2.40;2.00;;;;;20.17;37.67;98620.44;5003666;28;8796;-48
2021/05/16 08:02:54;;;;;;;;;2.00;2.00;;;;;20.07;37.74;98620.97;4994491;28;8789;-47
2021/05/16 08:05:19;;;;;;;;;2.00;2.00;;;;;20.02;37.93;98624.78;4988335;28;8793;-47
2021/05/16 08:07:44;;;;;;;;;2.00;2.00;;;;;19.99;38.10;98634.50;4977564;28;8899;-48
2021/05/16 08:10:10;;;;;;;;;2.00;2.00;;;;;19.98;37.97;98632.94;4980361;28;8833;-48
2021/05/16 08:12:36;;;;;;;;;2.00;2.00;;;;;19.98;37.94;98635.66;5003089;28;9567;-48
2021/05/16 08:15:03;;;;;;;;;2.00;2.00;;;;;19.99;37.89;98630.97;4982028;28;12231;-48
2021/05/16 08:17:28;;;;;;;;;1.00;1.00;;;;;19.97;37.91;98634.06;4976388;28;8790;-48
2021/05/16 08:19:53;;;;;;;;;1.75;1.75;;;;;19.91;37.90;98635.50;4985879;28;9678;-48
2021/05/16 08:22:20;;;;;;;;;2.00;2.00;;;;;19.94;38.07;98640.25;4994400;28;8764;-48
2021/05/16 08:24:45;;;;;;;;;1.00;1.00;;;;;19.94;38.04;98639.44;4993243;28;8853;-48
2021/05/16 08:27:11;;;;;;;;;2.00;2.00;;;;;19.92;38.05;98639.81;4993106;28;8830;-47
2021/05/16 08:29:36;;;;;;;;;1.00;1.00;;;;;20.15;38.01;98645.41;4996847;28;8804;-48
2021/05/16 08:32:06;;;;;;;;;1.00;1.00;;;;;20.21;37.66;98638.53;4996107;28;9504;-48
2021/05/16 08:34:32;;;;;;;;;2.00;2.00;;;;;20.05;37.64;98646.78;4990271;28;8791;-48
2021/05/16 08:36:58;;;;;;;;;1.00;1.00;;;;;19.97;37.88;98639.53;4975575;28;8810;-47
2021/05/16 08:39:23;;;;;;;;;2.00;2.00;;;;;19.83;37.98;98628.25;4970555;28;8919;-47
2021/05/16 08:41:48;;;;;;;;;1.00;1.00;;;;;19.90;38.06;98647.56;4989718;28;8820;-47
2021/05/16 08:44:14;;;;;;;;;2.00;2.00;;;;;19.89;38.11;98640.50;4998836;28;8858;-48
2021/05/16 08:46:41;;;;;;;;;1.00;1.00;;;;;19.89;37.99;98647.94;4993452;28;8874;-48
2021/05/16 08:49:07;;;;;;;;;1.40;1.40;;;;;19.89;37.97;98645.19;4970671;28;8854;-47
2021/05/16 08:51:33;;;;;;;;;1.25;1.25;;;;;19.87;38.06;98640.06;4976137;28;8869;-48
2021/05/16 08:53:58;;;;;;;;;1.40;1.40;;;;;19.88;38.11;98649.88;4989396;28;9006;-48
2021/05/16 08:56:24;;;;;;;;;1.40;1.40;;;;;19.90;38.11;98655.00;4979508;28;8935;-48
2021/05/16 08:58:49;;;;;;;;;1.25;1.25;;;;;19.88;37.99;98658.09;4975180;28;9226;-48
2021/05/16 09:01:19;;;;;;;;;1.75;1.75;;;;;19.88;38.06;98655.34;4978304;28;9558;-48
2021/05/16 09:03:45;;;;;;;;;1.60;1.60;;;;;20.17;37.65;98650.53;4999504;28;8819;-49
2021/05/16 09:06:10;;;;;;;;;2.00;2.00;;;;;19.81;37.58;98620.41;4989242;28;8928;-48
2021/05/16 09:08:35;;;;;;;;;1.25;1.25;;;;;19.66;37.89;98608.31;4995125;28;11035;-48
2021/05/16 09:11:02;;;;;;;;;2.00;2.00;;;;;19.90;38.04;98660.47;4988054;28;8838;-47
2021/05/16 09:13:28;;;;;;;;;2.00;2.00;;;;;19.88;38.03;98666.31;4977628;28;8787;-48
2021/05/16 09:16:14;;;;;;;;;2.00;2.00;;;;;19.86;37.93;98668.59;4998165;28;8832;-48
2021/05/16 09:18:54;;;;;;;;;2.00;2.00;;;;;19.83;38.02;98658.34;4987766;28;8885;-48
2021/05/16 09:21:33;;;;;;;;;2.00;2.00;;;;;19.85;37.99;98676.00;4990663;28;8785;-47
2021/05/16 09:24:01;;;;;;;;;1.80;1.80;;;;;19.83;38.07;98674.78;4994861;28;8789;-48
2021/05/16 09:26:27;;;;;;;;;2.00;2.00;;;;;19.83;37.99;98672.03;4984528;28;8814;-47
2021/05/16 09:28:53;;;;;;;;;2.00;2.00;;;;;19.83;38.02;98678.28;4987488;28;8844;-47
2021/05/16 09:31:39;;;;;;;;;1.40;1.40;;;;;19.81;37.95;98677.84;4992873;28;8757;-48
2021/05/16 09:34:06;;;;;;;;;2.00;2.00;;;;;19.82;38.13;98681.38;4993441;28;8812;-48
2021/05/16 09:36:36;;;;;;;;;1.20;1.20;;;;;20.11;37.75;98679.34;4992652;28;8784;-47
2021/05/16 09:39:23;;;;;;;;;2.00;2.00;;;;;19.99;37.75;98682.97;4978146;28;8795;-48
2021/05/16 09:42:08;;;;;;;;;2.00;2.00;;;;;19.88;37.84;98685.47;4974416;28;8821;-47
2021/05/16 09:44:36;;;;;;;;;1.60;1.60;;;;;19.82;38.14;98684.13;4979076;28;8953;-48
2021/05/16 09:47:23;;;;;;;;;2.00;2.00;;;;;19.79;38.05;98691.09;4987241;28;8779;-48
2021/05/16 09:49:51;;;;;;;;;1.40;1.40;;;;;19.80;37.85;98691.88;4998534;28;8820;-48
2021/05/16 09:52:27;;;;;;;;;1.00;1.00;;;;;19.79;38.10;98690.31;4992395;28;8885;-48
2021/05/16 09:55:00;;;;;;;;;1.00;1.00;;;;;19.78;38.11;98692.25;4974305;28;8821;-48
2021/05/16 09:57:29;;;;;;;;;2.00;2.00;;;;;19.77;38.10;98687.13;4976626;28;8798;-48
2021/05/16 09:59:55;;;;;;;;;2.00;2.00;;;;;19.77;37.95;98689.84;4974956;28;8802;-48
2021/05/16 10:02:24;;;;;;;;;2.00;2.00;;;;;19.76;38.18;98689.06;4986260;28;9983;-48
2021/05/16 10:04:51;;;;;;;;;2.00;2.00;;;;;19.77;38.11;98681.66;4996996;28;8855;-48
2021/05/16 10:07:19;;;;;;;;;1.60;1.60;;;;;19.76;37.97;98685.53;5000390;28;8796;-47
2021/05/16 10:09:45;;;;;;;;;1.00;1.00;;;;;20.05;37.83;98685.09;4997687;28;8940;-48
2021/05/16 10:12:11;;;;;;;;;2.00;2.00;;;;;19.95;37.51;98685.63;4998946;28;8918;-48
2021/05/16 10:14:41;;;;;;;;;2.00;2.00;;;;;19.84;37.81;98690.03;4995414;28;8804;-47
2021/05/16 10:17:07;;;;;;;;;1.40;1.40;;;;;19.78;37.87;98696.94;4990592;28;8831;-48
2021/05/16 10:19:35;;;;;;;;;1.00;1.00;;;;;19.79;38.03;98699.31;4993013;28;8872;-47
2021/05/16 10:22:11;;;;;;;;;1.00;1.00;;;;;19.68;37.96;98688.06;4996905;28;8835;-47
2021/05/16 10:24:38;;;;;;;;;2.00;2.00;;;;;19.75;37.95;98697.63;5002330;28;8838;-48
2021/05/16 10:27:18;;;;;;;;;1.80;1.80;;;;;19.74;37.98;98699.56;4996845;28;9612;-48
2021/05/16 10:29:55;;;;;;;;;1.00;1.00;;;;;19.74;37.81;98696.06;4979774;28;8945;-48
2021/05/16 10:32:23;;;;;;;;;1.80;1.80;;;;;19.71;37.99;98691.25;4979162;28;8822;-48
2021/05/16 10:34:59;;;;;;;;;1.60;1.60;;;;;19.71;38.06;98693.97;4973937;28;8830;-48
2021/05/16 10:37:55;;;;;;;;;2.20;2.00;;;;;19.70;37.92;98701.41;4980961;28;8774;-48
2021/05/16 10:40:32;;;;;;;;;2.00;2.00;;;;;19.71;38.23;98702.19;5000445;28;8756;-48
2021/05/16 10:43:00;;;;;;;;;2.00;2.00;;;;;20.01;37.83;98700.63;4997312;28;8792;-41
2021/05/16 10:45:29;;;;;;;;;2.00;2.00;;;;;19.90;37.50;98698.78;4980000;28;8806;-47
2021/05/16 10:47:56;;;;;;;;;1.60;1.60;;;;;19.80;37.89;98697.38;4988532;28;9591;-47
2021/05/16 10:50:25;;;;;;;;;1.40;1.40;;;;;19.74;37.95;98696.84;4985274;28;8865;-48
2021/05/16 10:52:59;;;;;;;;;1.80;1.80;;;;;19.72;37.90;98698.28;4977940;28;8797;-48
2021/05/16 10:55:31;;;;;;;;;2.00;2.00;;;;;19.68;37.87;98698.19;4987820;28;8858;-48
2021/05/16 10:57:57;;;;;;;;;1.80;1.80;;;;;19.68;37.97;98696.28;5001273;28;8804;-48
2021/05/16 11:00:26;;;;;;;;;1.25;1.25;;;;;19.70;38.10;98697.84;5001646;28;8831;-47
2021/05/16 11:03:08;;;;;;;;;2.00;2.00;;;;;19.70;37.84;98695.13;5001820;28;11611;-48
2021/05/16 11:05:53;;;;;;;;;2.00;2.00;;;;;19.69;38.00;98699.81;4997568;28;8822;-48
2021/05/16 11:08:19;;;;;;;;;2.00;2.00;;;;;19.70;37.86;98703.31;4999431;28;8826;-47
2021/05/16 11:10:51;;;;;;;;;1.00;1.00;;;;;19.68;38.04;98688.06;4997624;28;8803;-48
2021/05/16 11:13:27;;;;;;;;;1.40;1.20;;;;;19.70;37.92;98697.84;4991388;28;8796;-48
2021/05/16 11:16:05;;;;;;;;;1.00;1.00;;;;;20.00;37.56;98690.84;4998516;28;9523;-47
2021/05/16 11:18:30;;;;;;;;;1.20;1.20;;;;;19.88;37.43;98693.66;5003528;28;8967;-48
2021/05/16 11:21:01;;;;;;;;;2.00;2.00;;;;;19.76;37.68;98693.75;4997740;28;8933;-47
2021/05/16 11:23:36;;;;;;;;;1.60;1.60;;;;;19.70;37.84;98690.47;5002078;28;8781;-48
2021/05/16 11:26:04;;;;;;;;;2.00;2.00;;;;;19.67;37.99;98691.16;4996725;28;9611;-48
2021/05/16 11:28:34;;;;;;;;;2.00;1.00;;;;;19.67;37.96;98691.94;4999876;28;8791;-48
2021/05/16 11:31:06;;;;;;;;;2.00;2.00;;;;;19.65;38.04;98693.47;5000729;28;8784;-47
2021/05/16 11:33:34;;;;;;;;;1.40;1.40;;;;;19.64;38.03;98689.91;4980198;28;8818;-47
2021/05/16 11:36:07;;;;;;;;;1.00;1.00;;;;;19.65;38.01;98694.25;4984306;28;8778;-47
2021/05/16 11:38:35;;;;;;;;;1.20;1.20;;;;;19.66;37.82;98690.38;4984248;28;8829;-48
2021/05/16 11:41:01;;;;;;;;;2.00;2.00;;;;;19.57;37.92;98678.78;4990523;28;8772;-48